Time;durP1;ratioP1;P1;durP2;ratioP2;P2;SDS_P1;SDS_P2;PMS_P1;PMS_P2;Temp;Humidity;BMP_temperature;BMP_pressure;BME280_temperature;BME280_humidity;BME280_pressure;Samples;Min_cycle;Max_cycle;Signal;HPM_P1;HPM_P2
2024/01/05 00:01:54;;;;;;;6.95;4.65;;;2.40;73.20;;;;;;4932263;28;20038;-87
2024/01/05 00:04:20;;;;;;;9.80;5.22;;;2.40;72.70;;;;;;4945747;28;20034;-85
2024/01/05 00:06:46;;;;;;;8.38;4.93;;;2.30;72.60;;;;;;4951524;28;20053;-86
2024/01/05 00:09:12;;;;;;;8.50;4.50;;;2.30;72.30;;;;;;4947244;28;20034;-85
2024/01/05 00:11:38;;;;;;;9.30;4.80;;;2.30;72.00;;;;;;4978659;28;20523;-85
2024/01/05 00:14:04;;;;;;;8.38;4.75;;;2.30;71.70;;;;;;4975572;28;20043;-85
2024/01/05 00:16:33;;;;;;;8.85;4.55;;;2.30;71.50;;;;;;4946664;28;20035;-85
2024/01/05 00:18:59;;;;;;;7.03;4.60;;;2.20;71.40;;;;;;4964049;28;20129;-83
2024/01/05 00:21:27;;;;;;;9.55;4.80;;;2.20;71.10;;;;;;4947692;28;20031;-84
2024/01/05 00:23:54;;;;;;;8.20;4.65;;;2.20;70.90;;;;;;4967279;28;20031;-84
2024/01/05 00:26:21;;;;;;;7.32;4.65;;;2.10;70.80;;;;;;4963727;28;20142;-84
2024/01/05 00:28:48;;;;;;;8.52;4.63;;;2.10;70.60;;;;;;4966580;28;20035;-84
2024/01/05 00:31:15;;;;;;;9.48;5.20;;;2.10;70.30;;;;;;4965716;28;20081;-84
2024/01/05 00:33:42;;;;;;;8.70;5.03;;;2.00;70.20;;;;;;4967504;28;20055;-84
2024/01/05 00:36:10;;;;;;;8.70;5.35;;;2.00;70.00;;;;;;4968114;28;20552;-84
2024/01/05 00:38:36;;;;;;;8.38;5.15;;;1.90;69.90;;;;;;4982557;28;20042;-84
2024/01/05 00:41:03;;;;;;;8.77;4.97;;;1.90;69.80;;;;;;4963306;28;20417;-84
2024/01/05 00:43:30;;;;;;;7.05;4.90;;;1.90;69.90;;;;;;4948001;28;20516;-84
2024/01/05 00:45:56;;;;;;;9.70;5.07;;;1.90;69.60;;;;;;4979961;28;20038;-84
2024/01/05 00:48:22;;;;;;;8.45;5.43;;;1.90;69.50;;;;;;4962819;28;20221;-84
2024/01/05 00:50:48;;;;;;;9.68;5.63;;;1.80;69.10;;;;;;4981436;28;20030;-85
2024/01/05 00:53:15;;;;;;;9.25;5.63;;;1.80;69.20;;;;;;4947124;28;20148;-84
2024/01/05 00:55:41;;;;;;;8.90;5.50;;;1.80;69.00;;;;;;4962607;28;20058;-83
2024/01/05 00:58:07;;;;;;;9.50;5.30;;;1.70;68.80;;;;;;4980233;28;20209;-84
2024/01/05 01:00:33;;;;;;;9.82;5.32;;;1.70;68.80;;;;;;4962275;28;20094;-85
2024/01/05 01:03:00;;;;;;;7.72;5.10;;;1.70;68.70;;;;;;4962621;28;20133;-85
2024/01/05 01:05:26;;;;;;;9.63;4.90;;;1.70;68.70;;;;;;4962289;28;20038;-85
2024/01/05 01:07:52;;;;;;;7.28;4.78;;;1.70;68.60;;;;;;4959764;28;20046;-83
2024/01/05 01:10:18;;;;;;;9.73;5.22;;;1.60;68.30;;;;;;4957267;28;20031;-84
2024/01/05 01:12:44;;;;;;;10.13;5.25;;;1.60;68.20;;;;;;4971407;28;20440;-83
2024/01/05 01:15:10;;;;;;;8.68;5.57;;;1.50;68.30;;;;;;4978924;28;20090;-83
2024/01/05 01:17:36;;;;;;;8.30;4.82;;;1.50;68.30;;;;;;4951040;28;20458;-83
2024/01/05 01:20:03;;;;;;;9.45;5.63;;;1.50;68.40;;;;;;4963042;28;20062;-83
2024/01/05 01:22:29;;;;;;;8.15;5.15;;;1.50;68.70;;;;;;4963832;28;20038;-83
2024/01/05 01:24:55;;;;;;;8.88;4.97;;;1.40;68.80;;;;;;4962981;28;20042;-83
2024/01/05 01:27:21;;;;;;;8.73;5.10;;;1.40;68.90;;;;;;4965162;28;20042;-83
2024/01/05 01:29:48;;;;;;;7.85;4.20;;;1.40;69.80;;;;;;5000345;28;20495;-82
2024/01/05 01:32:14;;;;;;;8.45;4.90;;;1.30;69.30;;;;;;4963880;28;20046;-82
2024/01/05 01:34:40;;;;;;;8.93;5.57;;;1.30;69.30;;;;;;4963389;28;20041;-81
2024/01/05 01:37:06;;;;;;;9.98;5.10;;;1.30;69.40;;;;;;4950245;28;20050;-82
2024/01/05 01:39:32;;;;;;;8.10;4.78;;;1.30;69.50;;;;;;4972088;28;20035;-83
2024/01/05 01:41:59;;;;;;;9.90;5.60;;;1.30;69.40;;;;;;4965379;28;20474;-83
2024/01/05 01:44:25;;;;;;;7.85;5.20;;;1.20;69.30;;;;;;4970534;28;20057;-83
2024/01/05 01:46:55;;;;;;;9.52;5.13;;;1.20;69.20;;;;;;4953388;28;20401;-83
2024/01/05 01:49:23;;;;;;;8.93;5.22;;;1.20;69.00;;;;;;4964816;28;20437;-83
2024/01/05 01:51:49;;;;;;;9.15;5.30;;;1.20;69.00;;;;;;4970751;28;20039;-83
2024/01/05 01:54:16;;;;;;;8.38;5.13;;;1.10;68.90;;;;;;4967250;28;21053;-83
2024/01/05 01:56:45;;;;;;;8.07;5.18;;;1.10;68.90;;;;;;4962331;28;20170;-83
2024/01/05 01:59:12;;;;;;;8.43;4.70;;;1.10;68.80;;;;;;4976344;28;20049;-83
2024/01/05 02:01:41;;;;;;;8.07;4.90;;;1.10;68.60;;;;;;4995045;28;20038;-83
2024/01/05 02:04:17;;;;;;;7.47;4.80;;;1.00;68.70;;;;;;4944838;28;20129;-83
2024/01/05 02:06:47;;;;;;;9.15;5.00;;;1.00;68.50;;;;;;4955680;28;20416;-85
2024/01/05 02:09:13;;;;;;;10.05;4.65;;;1.00;68.60;;;;;;4937275;28;20039;-86
2024/01/05 02:11:39;;;;;;;7.07;4.70;;;1.00;68.50;;;;;;4933651;28;20073;-84
2024/01/05 02:14:05;;;;;;;7.07;4.43;;;1.00;68.50;;;;;;4949983;28;20046;-84
2024/01/05 02:16:31;;;;;;;8.27;4.88;;;0.90;68.40;;;;;;4961500;28;20046;-86
2024/01/05 02:19:17;;;;;;;7.40;4.68;;;0.90;68.40;;;;;;4944725;28;20041;-85
2024/01/05 02:21:49;;;;;;;9.75;4.90;;;0.90;68.30;;;;;;4944509;28;20045;-85
2024/01/05 02:24:15;;;;;;;7.60;4.18;;;0.90;68.30;;;;;;4934976;28;20042;-86
2024/01/05 02:26:41;;;;;;;7.35;4.60;;;0.90;68.40;;;;;;4998470;28;20072;-86
2024/01/05 02:29:08;;;;;;;9.38;4.97;;;0.90;68.20;;;;;;4984998;28;20511;-86
2024/01/05 02:31:34;;;;;;;8.48;4.32;;;0.90;68.20;;;;;;4961601;28;20046;-85
2024/01/05 02:34:00;;;;;;;8.35;4.85;;;0.90;68.10;;;;;;4957866;28;20042;-85
2024/01/05 02:36:26;;;;;;;10.43;5.25;;;0.80;68.10;;;;;;4923235;28;20035;-86
2024/01/05 02:38:52;;;;;;;9.05;5.75;;;0.90;68.00;;;;;;4950743;28;20042;-86
2024/01/05 02:41:18;;;;;;;9.35;5.45;;;0.80;68.00;;;;;;4933557;28;20031;-86
2024/01/05 02:43:44;;;;;;;9.82;4.95;;;0.80;67.90;;;;;;4935830;28;20379;-85
2024/01/05 02:46:10;;;;;;;9.18;5.25;;;0.80;67.90;;;;;;4932436;28;20043;-86
2024/01/05 02:48:36;;;;;;;11.40;5.40;;;0.80;67.70;;;;;;4962220;28;20045;-87
2024/01/05 02:51:02;;;;;;;12.70;5.72;;;0.80;67.50;;;;;;4944816;28;20513;-86
2024/01/05 02:53:28;;;;;;;9.85;5.47;;;0.80;67.50;;;;;;4982465;28;20109;-86
2024/01/05 02:55:54;;;;;;;8.90;5.25;;;0.80;67.60;;;;;;4983138;28;20069;-86
2024/01/05 02:58:20;;;;;;;9.65;5.45;;;0.80;67.60;;;;;;4965371;28;20034;-86
2024/01/05 03:00:46;;;;;;;7.13;4.85;;;0.80;67.70;;;;;;4961710;28;20129;-87
2024/01/05 03:03:12;;;;;;;8.95;4.90;;;0.80;67.70;;;;;;4978739;28;20038;-87
2024/01/05 03:05:39;;;;;;;8.73;5.10;;;0.70;67.70;;;;;;4997217;28;20038;-87
2024/01/05 03:08:06;;;;;;;8.00;4.47;;;0.70;68.00;;;;;;4972835;28;20429;-86
2024/01/05 03:10:32;;;;;;;8.52;4.80;;;0.70;67.90;;;;;;4963677;28;20038;-86
2024/01/05 03:12:58;;;;;;;6.68;4.28;;;0.70;68.20;;;;;;4964939;28;20034;-86
2024/01/05 03:15:24;;;;;;;8.77;4.95;;;0.70;68.10;;;;;;4995908;28;20065;-87
2024/01/05 03:17:50;;;;;;;8.63;5.18;;;0.60;68.20;;;;;;4964868;28;20536;-90
2024/01/05 03:20:17;;;;;;;8.45;4.95;;;0.60;68.20;;;;;;4950158;28;20049;-90
2024/01/05 03:22:43;;;;;;;7.70;4.93;;;0.60;68.10;;;;;;4966769;28;20042;-89
2024/01/05 03:25:10;;;;;;;9.13;5.00;;;0.60;68.10;;;;;;4962306;28;20505;-90
2024/01/05 03:27:39;;;;;;;7.75;4.50;;;0.60;68.00;;;;;;4979361;28;20040;-91
2024/01/05 03:30:06;;;;;;;10.25;5.60;;;0.60;68.10;;;;;;4943561;28;20030;-86
2024/01/05 03:32:32;;;;;;;8.50;4.88;;;0.50;67.80;;;;;;4979932;28;20042;-85
2024/01/05 03:34:58;;;;;;;8.18;4.70;;;0.60;68.00;;;;;;4982198;28;20046;-85
2024/01/05 03:37:24;;;;;;;7.13;3.75;;;0.60;68.00;;;;;;4950958;28;20584;-84
2024/01/05 03:39:50;;;;;;;7.80;4.45;;;0.60;68.00;;;;;;4964267;28;20030;-84
2024/01/05 03:42:16;;;;;;;7.05;4.22;;;0.60;67.90;;;;;;4980313;28;20920;-84
2024/01/05 03:44:42;;;;;;;5.60;3.88;;;0.50;67.80;;;;;;4962401;28;20066;-84
2024/01/05 03:47:08;;;;;;;7.75;4.43;;;0.50;67.80;;;;;;4968790;28;20046;-84
2024/01/05 03:49:36;;;;;;;7.13;3.88;;;0.50;67.70;;;;;;4992010;28;20069;-88
2024/01/05 03:52:02;;;;;;;5.55;3.70;;;0.50;67.50;;;;;;4974774;28;20034;-90
2024/01/05 03:54:28;;;;;;;7.95;4.60;;;0.50;67.40;;;;;;4974349;28;20070;-90
2024/01/05 03:56:54;;;;;;;7.05;4.22;;;0.50;67.30;;;;;;4961732;28;20488;-90
2024/01/05 03:59:20;;;;;;;7.07;4.13;;;0.50;67.30;;;;;;4976597;28;20049;-89
2024/01/05 04:01:47;;;;;;;8.30;4.43;;;0.50;67.40;;;;;;4975721;28;20069;-90
2024/01/05 04:04:14;;;;;;;8.38;4.15;;;0.40;67.20;;;;;;4948907;28;20102;-89
2024/01/05 04:06:40;;;;;;;8.65;5.00;;;0.40;67.20;;;;;;4929452;28;20046;-88
2024/01/05 04:09:09;;;;;;;10.55;4.45;;;0.40;67.20;;;;;;4963894;28;20049;-89
2024/01/05 04:11:39;;;;;;;7.18;3.97;;;0.40;67.10;;;;;;4917539;28;20499;-88
2024/01/05 04:14:06;;;;;;;6.82;4.03;;;0.40;67.00;;;;;;4944899;28;20074;-88
2024/01/05 04:16:32;;;;;;;6.68;3.83;;;0.40;66.80;;;;;;4967408;28;20462;-87
2024/01/05 04:18:58;;;;;;;8.10;4.43;;;0.30;66.80;;;;;;4948973;28;20077;-88
2024/01/05 04:21:24;;;;;;;6.60;4.03;;;0.40;66.80;;;;;;4945162;28;20082;-88
2024/01/05 04:23:54;;;;;;;7.85;4.35;;;0.30;66.80;;;;;;4960376;28;20037;-88
2024/01/05 04:26:20;;;;;;;6.60;3.92;;;0.30;66.90;;;;;;4928009;28;20038;-87
2024/01/05 04:28:46;;;;;;;7.15;3.75;;;0.40;66.90;;;;;;4932753;28;20049;-88
2024/01/05 04:31:12;;;;;;;6.50;3.78;;;0.40;66.80;;;;;;4959813;28;20042;-87
2024/01/05 04:33:38;;;;;;;5.80;3.45;;;0.30;66.60;;;;;;4943877;28;20034;-87
2024/01/05 04:36:05;;;;;;;7.20;4.38;;;0.40;66.80;;;;;;4958835;28;20042;-87
2024/01/05 04:38:34;;;;;;;8.95;3.88;;;0.40;66.80;;;;;;4944934;28;20019;-87
2024/01/05 04:41:01;;;;;;;5.47;3.67;;;0.30;66.90;;;;;;4961399;28;21342;-86
2024/01/05 04:43:27;;;;;;;5.35;3.70;;;0.30;66.90;;;;;;4974494;28;20544;-86
2024/01/05 04:45:53;;;;;;;5.45;3.40;;;0.30;67.00;;;;;;4948084;28;20034;-86
2024/01/05 04:48:19;;;;;;;5.20;3.63;;;0.30;67.40;;;;;;4961437;28;20133;-88
2024/01/05 04:50:45;;;;;;;5.85;3.40;;;0.30;67.60;;;;;;4929043;28;20569;-87
2024/01/05 04:53:11;;;;;;;5.75;3.35;;;0.30;67.60;;;;;;4945107;28;20150;-86
2024/01/05 04:55:37;;;;;;;4.47;3.13;;;0.30;67.80;;;;;;4959568;28;20129;-86
2024/01/05 04:58:03;;;;;;;6.05;4.00;;;0.30;68.00;;;;;;4943708;28;20514;-87
2024/01/05 05:00:29;;;;;;;6.53;3.75;;;0.30;68.00;;;;;;4943894;28;20042;-87
2024/01/05 05:02:55;;;;;;;8.30;3.13;;;0.30;67.90;;;;;;4945851;28;20030;-87
2024/01/05 05:05:22;;;;;;;5.97;3.63;;;0.30;67.80;;;;;;4927902;28;20035;-87
2024/01/05 05:07:48;;;;;;;4.60;3.15;;;0.30;67.70;;;;;;4946866;28;20034;-86
2024/01/05 05:10:15;;;;;;;5.72;3.60;;;0.30;67.80;;;;;;4949873;28;20389;-86
2024/01/05 05:12:41;;;;;;;6.75;3.63;;;0.30;67.70;;;;;;4977320;28;20517;-86
2024/01/05 05:15:08;;;;;;;5.13;3.17;;;0.30;67.70;;;;;;4979796;28;20042;-87
2024/01/05 05:17:34;;;;;;;5.63;3.20;;;0.30;67.70;;;;;;4935888;28;20031;-88
2024/01/05 05:20:00;;;;;;;5.85;3.40;;;0.30;68.20;;;;;;4952141;28;20110;-85
2024/01/05 05:22:26;;;;;;;5.32;3.40;;;0.30;67.60;;;;;;4980047;28;20041;-84
2024/01/05 05:24:52;;;;;;;5.78;3.63;;;0.30;67.50;;;;;;4988308;28;20393;-87
2024/01/05 05:27:18;;;;;;;6.78;3.40;;;0.20;67.20;;;;;;4966896;28;20042;-85
2024/01/05 05:29:44;;;;;;;7.43;3.92;;;0.20;67.30;;;;;;4959826;28;20029;-88
2024/01/05 05:32:11;;;;;;;7.13;3.88;;;0.20;67.10;;;;;;4984282;28;20048;-90
2024/01/05 05:34:37;;;;;;;6.85;4.07;;;0.20;67.10;;;;;;4950574;28;20170;-90
2024/01/05 05:37:03;;;;;;;6.68;3.80;;;0.20;67.10;;;;;;4952520;28;20425;-91
2024/01/05 05:39:29;;;;;;;6.05;3.83;;;0.20;67.10;;;;;;4935776;28;20241;-91
2024/01/05 05:41:55;;;;;;;7.40;3.72;;;0.20;66.90;;;;;;4955451;28;20031;-90
2024/01/05 05:44:21;;;;;;;7.00;4.40;;;0.10;66.90;;;;;;4954090;28;20161;-92
2024/01/05 05:46:48;;;;;;;6.70;4.38;;;0.20;67.20;;;;;;4958270;28;20042;-89
2024/01/05 05:49:14;;;;;;;6.65;3.80;;;0.20;67.10;;;;;;4969644;28;20045;-92
2024/01/05 05:51:40;;;;;;;5.93;3.60;;;0.20;67.20;;;;;;4931345;28;20047;-88
2024/01/05 05:54:06;;;;;;;6.45;3.83;;;0.20;67.30;;;;;;4961134;28;20049;-87
2024/01/05 05:56:32;;;;;;;6.22;3.67;;;0.20;67.30;;;;;;4947203;28;20062;-89
2024/01/05 05:58:58;;;;;;;6.70;3.60;;;0.20;67.20;;;;;;4976586;28;20555;-89
2024/01/05 06:01:24;;;;;;;6.82;4.10;;;0.20;67.10;;;;;;4969311;28;20035;-88
2024/01/05 06:03:50;;;;;;;6.63;3.65;;;0.20;67.00;;;;;;4961356;28;20041;-84
2024/01/05 06:06:19;;;;;;;8.02;3.90;;;0.20;67.00;;;;;;4954123;28;20030;-85
2024/01/05 06:08:45;;;;;;;5.43;3.40;;;0.20;66.90;;;;;;4968306;28;20034;-84
2024/01/05 06:11:18;;;;;;;6.60;3.55;;;0.30;66.90;;;;;;4945653;28;20102;-84
2024/01/05 06:13:45;;;;;;;7.88;3.58;;;0.30;66.80;;;;;;4971677;28;20045;-85
2024/01/05 06:16:12;;;;;;;8.20;3.90;;;0.30;66.80;;;;;;4987779;28;20034;-85
2024/01/05 06:18:39;;;;;;;5.72;3.50;;;0.30;66.80;;;;;;4981766;28;20029;-84
2024/01/05 06:21:05;;;;;;;5.40;3.60;;;0.20;66.70;;;;;;4938466;28;20595;-85
2024/01/05 06:23:32;;;;;;;4.97;3.10;;;0.30;66.60;;;;;;4980665;28;20034;-84
2024/01/05 06:25:58;;;;;;;5.97;3.50;;;0.30;67.20;;;;;;4980208;28;20030;-84
2024/01/05 06:28:24;;;;;;;6.47;3.70;;;0.20;66.60;;;;;;4984368;28;20038;-83
2024/01/05 06:30:50;;;;;;;6.65;4.07;;;0.30;66.60;;;;;;4998960;28;20042;-87
2024/01/05 06:33:16;;;;;;;5.32;3.75;;;0.30;66.60;;;;;;4966109;28;20069;-87
2024/01/05 06:35:42;;;;;;;6.78;3.75;;;0.20;66.70;;;;;;4964705;28;20046;-86
2024/01/05 06:38:08;;;;;;;6.03;3.75;;;0.20;66.80;;;;;;4987306;28;20037;-88
2024/01/05 06:40:34;;;;;;;6.38;3.63;;;0.20;66.90;;;;;;4951645;28;20062;-87
2024/01/05 06:43:00;;;;;;;6.40;3.67;;;0.30;67.10;;;;;;4968565;28;20062;-86
2024/01/05 06:45:27;;;;;;;6.95;3.90;;;0.30;67.20;;;;;;4984876;28;20030;-84
2024/01/05 06:48:02;;;;;;;8.82;3.80;;;0.30;67.20;;;;;;4996494;28;20424;-84
2024/01/05 06:50:28;;;;;;;7.43;3.40;;;0.30;67.30;;;;;;4999695;28;20029;-84
2024/01/05 06:52:54;;;;;;;4.85;3.72;;;0.30;67.60;;;;;;4948550;28;20083;-84
2024/01/05 06:55:20;;;;;;;7.10;4.07;;;0.30;67.60;;;;;;4967396;28;20043;-84
2024/01/05 06:57:47;;;;;;;5.68;3.35;;;0.30;67.60;;;;;;4945176;28;20066;-84
2024/01/05 07:00:14;;;;;;;6.32;3.40;;;0.30;67.50;;;;;;4944938;28;20037;-84
2024/01/05 07:02:40;;;;;;;6.57;3.60;;;0.30;67.50;;;;;;4960155;28;20105;-86
2024/01/05 07:05:07;;;;;;;6.20;3.83;;;0.30;67.20;;;;;;4940035;28;20043;-87
2024/01/05 07:07:33;;;;;;;6.43;3.60;;;0.30;67.20;;;;;;4959830;28;20062;-86
2024/01/05 07:09:59;;;;;;;7.03;4.10;;;0.30;67.00;;;;;;4960463;28;20039;-86
2024/01/05 07:12:28;;;;;;;6.45;3.80;;;0.30;66.90;;;;;;4944750;28;20620;-85
2024/01/05 07:14:54;;;;;;;6.70;3.55;;;0.30;66.70;;;;;;4958421;28;20394;-85
2024/01/05 07:17:20;;;;;;;6.53;3.47;;;0.30;66.80;;;;;;4977476;28;20129;-87
2024/01/05 07:19:46;;;;;;;6.03;3.63;;;0.30;66.50;;;;;;4962829;28;20051;-87
2024/01/05 07:22:12;;;;;;;5.70;3.72;;;0.30;66.90;;;;;;4976535;28;20869;-86
2024/01/05 07:24:38;;;;;;;7.65;4.00;;;0.30;66.30;;;;;;4976503;28;20121;-87
2024/01/05 07:27:05;;;;;;;5.38;3.25;;;0.20;66.10;;;;;;4960299;28;20043;-91
2024/01/05 07:29:31;;;;;;;8.07;3.55;;;0.30;66.20;;;;;;4966109;28;20565;-95
2024/01/05 07:31:58;;;;;;;5.53;3.33;;;0.20;66.10;;;;;;4938441;28;20113;-89
2024/01/05 07:34:24;;;;;;;6.30;3.60;;;0.30;66.30;;;;;;4942662;28;20035;-89
2024/01/05 07:36:50;;;;;;;5.22;3.53;;;0.30;66.40;;;;;;4959037;28;20517;-94
2024/01/05 07:39:16;;;;;;;5.28;3.47;;;0.30;66.60;;;;;;4930018;28;20043;-90
2024/01/05 07:41:42;;;;;;;6.47;3.78;;;0.30;66.50;;;;;;4929460;28;20027;-93
2024/01/05 07:44:08;;;;;;;7.07;3.92;;;0.30;66.60;;;;;;4964212;28;20121;-93
2024/01/05 07:46:41;;;;;;;6.60;3.70;;;0.30;66.60;;;;;;4951831;28;20114;-94
2024/01/05 07:49:07;;;;;;;7.53;4.38;;;0.30;66.80;;;;;;4961852;28;20616;-94
2024/01/05 07:51:33;;;;;;;7.35;3.50;;;0.30;66.80;;;;;;4944605;28;20034;-91
2024/01/05 07:53:59;;;;;;;7.55;4.47;;;0.40;67.00;;;;;;4961406;28;20050;-89
2024/01/05 07:56:26;;;;;;;7.38;4.65;;;0.30;67.00;;;;;;4977647;28;20438;-93
2024/01/05 07:58:52;;;;;;;7.95;4.70;;;0.40;66.80;;;;;;4981984;28;20513;-91
2024/01/05 08:01:18;;;;;;;9.45;5.40;;;0.40;66.80;;;;;;4952402;28;20031;-92
2024/01/05 08:03:45;;;;;;;7.88;4.90;;;0.40;66.80;;;;;;4965153;28;20498;-90
2024/01/05 08:06:19;;;;;;;9.43;4.95;;;0.50;66.80;;;;;;4961157;28;20061;-81
2024/01/05 08:08:50;;;;;;;11.20;5.97;;;0.50;66.90;;;;;;4963792;28;20085;-85
2024/01/05 08:11:16;;;;;;;8.07;4.88;;;0.50;67.00;;;;;;4958133;28;20074;-77
2024/01/05 08:13:43;;;;;;;9.80;4.93;;;0.60;68.60;;;;;;4970874;28;20036;-77
2024/01/05 08:16:10;;;;;;;8.70;5.07;;;0.60;69.90;;;;;;4958892;28;20506;-79
2024/01/05 08:18:37;;;;;;;7.95;5.38;;;0.70;69.50;;;;;;4956371;28;20043;-77
2024/01/05 08:21:03;;;;;;;6.95;5.15;;;0.70;69.20;;;;;;4935998;28;20544;-78
2024/01/05 08:23:31;;;;;;;7.97;5.20;;;0.80;69.40;;;;;;4967901;28;20042;-78
2024/01/05 08:25:58;;;;;;;7.50;4.85;;;0.80;69.30;;;;;;4952277;28;20035;-76
2024/01/05 08:28:24;;;;;;;7.38;4.55;;;0.90;69.20;;;;;;4952369;28;20039;-77
2024/01/05 08:30:50;;;;;;;8.93;5.20;;;0.90;69.00;;;;;;4951580;28;20039;-77
2024/01/05 08:33:16;;;;;;;7.97;4.75;;;0.90;69.10;;;;;;4953527;28;20530;-76
2024/01/05 08:35:42;;;;;;;8.55;4.55;;;1.00;69.20;;;;;;4953756;28;20027;-77
2024/01/05 08:38:08;;;;;;;6.47;4.18;;;1.00;69.20;;;;;;4951521;28;20133;-77
2024/01/05 08:40:35;;;;;;;8.40;5.07;;;1.10;69.20;;;;;;4961622;28;20126;-84
2024/01/05 08:43:02;;;;;;;7.40;4.57;;;1.10;69.20;;;;;;4920612;28;20738;-80
2024/01/05 08:45:29;;;;;;;7.28;4.40;;;1.10;68.90;;;;;;4953138;28;20414;-81
2024/01/05 08:48:15;;;;;;;7.45;4.38;;;1.20;68.90;;;;;;4924260;28;20090;-79
2024/01/05 08:50:41;;;;;;;8.20;4.60;;;1.20;68.80;;;;;;4958834;28;20517;-81
2024/01/05 08:53:09;;;;;;;9.30;4.65;;;1.20;68.50;;;;;;4957609;28;20047;-80
2024/01/05 08:55:36;;;;;;;6.03;4.45;;;1.20;68.40;;;;;;4965693;28;20405;-82
2024/01/05 08:58:02;;;;;;;8.95;4.65;;;1.30;68.20;;;;;;4936600;28;20126;-84
2024/01/05 09:00:28;;;;;;;8.55;4.72;;;1.30;68.30;;;;;;4949857;28;20038;-79
2024/01/05 09:02:55;;;;;;;9.38;4.55;;;1.30;68.40;;;;;;4957530;28;20106;-80
2024/01/05 09:05:21;;;;;;;6.63;4.55;;;1.30;68.40;;;;;;4960526;28;20505;-79
2024/01/05 09:07:48;;;;;;;8.55;5.20;;;1.40;68.10;;;;;;4953200;28;20038;-81
2024/01/05 09:10:14;;;;;;;9.27;4.82;;;1.40;68.20;;;;;;4976105;28;20117;-81
2024/01/05 09:12:40;;;;;;;8.85;4.50;;;1.40;68.20;;;;;;4960903;28;20477;-83
2024/01/05 09:15:08;;;;;;;7.95;4.63;;;1.40;67.90;;;;;;4975901;28;20105;-80
2024/01/05 09:17:39;;;;;;;9.63;4.57;;;1.40;67.80;;;;;;4976185;28;20034;-81
2024/01/05 09:20:06;;;;;;;7.93;4.40;;;1.50;67.90;;;;;;4957738;28;20717;-82
2024/01/05 09:22:32;;;;;;;9.50;5.00;;;1.50;67.90;;;;;;4975133;28;20492;-83
2024/01/05 09:24:58;;;;;;;10.45;4.50;;;1.50;67.90;;;;;;4958265;28;20038;-82
2024/01/05 09:27:24;;;;;;;12.23;5.53;;;1.50;68.00;;;;;;4976724;28;20077;-82
2024/01/05 09:29:51;;;;;;;8.10;4.68;;;1.50;67.90;;;;;;4976768;28;20050;-86
2024/01/05 09:32:17;;;;;;;9.93;4.53;;;1.50;67.80;;;;;;4976044;28;20054;-81
2024/01/05 09:34:43;;;;;;;8.50;4.53;;;1.50;67.50;;;;;;4972470;28;20141;-85
2024/01/05 09:37:10;;;;;;;12.95;5.63;;;1.50;67.20;;;;;;4933011;28;20041;-84
2024/01/05 09:39:56;;;;;;;11.10;5.35;;;1.50;67.10;;;;;;4966305;28;20041;-83
2024/01/05 09:42:54;;;;;;;8.15;5.00;;;1.50;67.10;;;;;;4967361;28;20043;-83
2024/01/05 09:45:41;;;;;;;8.15;5.25;;;1.50;67.10;;;;;;4967467;28;20197;-83
2024/01/05 09:48:28;;;;;;;7.18;4.65;;;1.60;67.10;;;;;;4967449;28;20047;-84
2024/01/05 09:51:14;;;;;;;10.70;5.05;;;1.60;67.00;;;;;;4964857;28;20046;-84
2024/01/05 09:54:01;;;;;;;9.90;5.22;;;1.60;66.90;;;;;;4977507;28;20055;-84
2024/01/05 09:56:48;;;;;;;8.63;5.20;;;1.60;66.90;;;;;;4978377;28;20069;-86
2024/01/05 09:59:35;;;;;;;9.30;5.30;;;1.60;66.90;;;;;;4960133;28;20074;-83
2024/01/05 10:02:39;;;;;;;11.73;5.55;;;1.60;67.10;;;;;;4964578;28;20043;-84
2024/01/05 10:05:25;;;;;;;6.20;4.13;;;1.60;67.10;;;;;;4950622;28;20039;-83
2024/01/05 10:08:13;;;;;;;7.80;4.40;;;1.60;67.20;;;;;;4984311;28;20039;-81
2024/01/05 10:11:01;;;;;;;6.43;4.65;;;1.60;67.50;;;;;;4981126;28;20035;-82
2024/01/05 10:13:55;;;;;;;6.82;4.45;;;1.60;67.70;;;;;;4961394;28;20103;-82
2024/01/05 10:16:41;;;;;;;8.38;4.47;;;1.60;68.00;;;;;;4985729;28;20062;-80
2024/01/05 10:19:27;;;;;;;7.80;4.65;;;1.60;67.90;;;;;;4986690;28;20038;-84
2024/01/05 10:22:14;;;;;;;9.48;4.57;;;1.60;68.00;;;;;;4970900;28;20034;-85
2024/01/05 10:25:14;;;;;;;6.30;4.15;;;1.60;68.00;;;;;;4971108;28;21125;-84
2024/01/05 10:28:00;;;;;;;6.78;4.10;;;1.60;67.90;;;;;;4971657;28;20137;-81
2024/01/05 10:30:46;;;;;;;7.45;3.97;;;1.60;67.70;;;;;;4981557;28;20050;-81
2024/01/05 10:33:32;;;;;;;6.65;3.88;;;1.70;67.70;;;;;;4984815;28;20038;-84
2024/01/05 10:36:20;;;;;;;5.95;4.00;;;1.70;67.70;;;;;;4982425;28;20070;-86
2024/01/05 10:39:08;;;;;;;4.93;3.53;;;1.70;67.50;;;;;;4983490;28;20433;-82
2024/01/05 10:41:54;;;;;;;6.28;3.67;;;1.70;67.40;;;;;;4981440;28;20035;-82
2024/01/05 10:44:45;;;;;;;7.00;3.63;;;1.70;67.10;;;;;;4954533;28;20061;-80
2024/01/05 10:47:31;;;;;;;5.45;3.33;;;1.70;67.10;;;;;;4962836;28;20082;-80
2024/01/05 10:50:17;;;;;;;8.82;4.15;;;1.70;67.10;;;;;;4980263;28;20043;-80
2024/01/05 10:53:04;;;;;;;;;;;1.70;67.10;;;;;;4970189;28;20061;-80
2024/01/05 10:55:50;;;;;;;7.55;3.80;;;1.70;67.10;;;;;;4966414;28;20742;-82
2024/01/05 10:58:36;;;;;;;;;;;1.70;67.10;;;;;;4967874;28;20824;-81
2024/01/05 11:01:24;;;;;;;7.18;3.60;;;1.70;67.60;;;;;;4970815;28;20363;-84
2024/01/05 11:04:10;;;;;;;5.95;3.45;;;1.70;67.00;;;;;;4950526;28;20274;-87
2024/01/05 11:06:59;;;;;;;6.00;3.33;;;1.70;67.00;;;;;;4965894;28;20298;-85
2024/01/05 11:09:57;;;;;;;6.47;3.53;;;1.70;67.10;;;;;;4955760;28;20031;-86
2024/01/05 11:13:05;;;;;;;7.85;3.78;;;1.60;67.00;;;;;;4962636;28;20053;-86
2024/01/05 11:16:09;;;;;;;5.72;3.88;;;1.70;66.90;;;;;;4987474;28;20098;-89
2024/01/05 11:19:04;;;;;;;7.10;3.90;;;1.70;67.10;;;;;;4989454;28;20057;-85
2024/01/05 11:22:04;;;;;;;6.97;3.63;;;1.70;67.50;;;;;;4984474;28;20066;-86
2024/01/05 11:24:51;;;;;;;7.20;3.72;;;1.70;68.10;;;;;;4972456;28;20130;-88
2024/01/05 11:27:38;;;;;;;6.97;4.03;;;1.70;68.20;;;;;;4987935;28;20103;-86
2024/01/05 11:30:41;;;;;;;7.63;3.95;;;1.70;68.30;;;;;;4974237;28;20141;-86
2024/01/05 11:33:46;;;;;;;9.68;3.63;;;1.70;68.40;;;;;;4988974;28;20031;-87
2024/01/05 11:36:54;;;;;;;7.65;4.13;;;1.80;68.60;;;;;;4972461;28;20039;-85
2024/01/05 11:39:47;;;;;;;7.40;3.83;;;1.70;68.60;;;;;;4973549;28;20041;-83
2024/01/05 11:42:33;;;;;;;8.65;4.28;;;1.80;68.40;;;;;;4985533;28;20042;-79
2024/01/05 11:45:38;;;;;;;7.35;4.20;;;1.80;68.30;;;;;;4965141;28;20063;-78
2024/01/05 11:48:36;;;;;;;5.05;3.15;;;1.80;68.50;;;;;;4971681;28;20061;-76
2024/01/05 11:51:23;;;;;;;6.95;3.53;;;1.80;68.40;;;;;;4959540;28;20124;-77
2024/01/05 11:54:11;;;;;;;7.07;3.58;;;1.80;68.40;;;;;;4975556;28;20051;-76
2024/01/05 11:57:02;;;;;;;6.22;3.85;;;1.80;69.00;;;;;;4962702;28;20058;-79
2024/01/05 11:59:54;;;;;;;6.68;3.67;;;1.80;69.80;;;;;;4963522;28;20047;-81
2024/01/05 12:02:40;;;;;;;9.02;4.30;;;1.80;69.90;;;;;;4934489;29;20104;-79
2024/01/05 12:05:26;;;;;;;6.05;3.13;;;1.80;70.30;;;;;;4937150;29;20111;-80
2024/01/05 12:08:14;;;;;;;10.73;4.05;;;1.80;70.40;;;;;;4953222;28;20379;-76
2024/01/05 12:11:05;;;;;;;10.07;3.63;;;1.80;70.20;;;;;;4953202;28;20039;-80
2024/01/05 12:13:52;;;;;;;6.28;4.05;;;1.90;70.50;;;;;;4950776;28;20039;-79
2024/01/05 12:16:39;;;;;;;6.68;3.78;;;1.90;70.50;;;;;;4955019;28;20047;-80
2024/01/05 12:19:25;;;;;;;9.70;4.40;;;1.90;70.50;;;;;;4946107;28;20796;-80
2024/01/05 12:22:12;;;;;;;7.43;4.60;;;1.90;70.80;;;;;;4950697;28;20094;-80
2024/01/05 12:24:59;;;;;;;7.80;4.22;;;1.90;71.00;;;;;;4955206;28;20043;-81
2024/01/05 12:27:45;;;;;;;7.28;4.38;;;1.90;70.70;;;;;;4951650;28;20122;-82
2024/01/05 12:30:33;;;;;;;8.38;3.97;;;1.90;70.30;;;;;;4945060;28;20086;-81
2024/01/05 12:33:20;;;;;;;10.02;4.15;;;1.90;69.80;;;;;;4949939;28;20162;-80
2024/01/05 12:36:12;;;;;;;7.03;4.07;;;1.90;69.30;;;;;;4953531;28;20075;-80
2024/01/05 12:39:10;;;;;;;5.55;4.13;;;2.00;69.10;;;;;;4954581;28;20034;-80
2024/01/05 12:41:56;;;;;;;7.68;3.50;;;1.90;68.70;;;;;;4932030;29;20597;-80
2024/01/05 12:44:42;;;;;;;6.80;3.75;;;1.90;68.50;;;;;;4952979;28;20031;-80
2024/01/05 12:47:29;;;;;;;6.75;3.95;;;2.00;68.50;;;;;;4957165;28;20042;-81
2024/01/05 12:50:30;;;;;;;6.95;3.83;;;2.00;68.20;;;;;;4969818;28;20041;-81
2024/01/05 12:53:18;;;;;;;7.43;3.80;;;1.90;68.00;;;;;;4925881;28;20035;-81
2024/01/05 12:56:11;;;;;;;5.88;3.03;;;1.90;67.80;;;;;;4948546;28;20039;-81
2024/01/05 12:58:57;;;;;;;6.72;3.65;;;1.90;67.70;;;;;;4956157;28;20046;-81
2024/01/05 13:01:43;;;;;;;6.68;3.72;;;1.90;67.70;;;;;;4942932;28;20540;-80
2024/01/05 13:04:34;;;;;;;5.72;3.78;;;1.90;67.60;;;;;;4955519;28;20090;-80
2024/01/05 13:07:20;;;;;;;7.40;4.07;;;1.90;67.40;;;;;;4935600;29;20179;-81
2024/01/05 13:10:07;;;;;;;9.02;3.90;;;1.90;67.30;;;;;;4936763;29;20103;-81
2024/01/05 13:12:54;;;;;;;6.40;3.90;;;1.90;67.50;;;;;;4937201;29;20039;-81
2024/01/05 13:15:40;;;;;;;6.88;4.35;;;1.90;67.30;;;;;;4941239;28;20039;-81
2024/01/05 13:18:26;;;;;;;8.35;4.43;;;1.90;67.30;;;;;;4955984;28;20030;-81
2024/01/05 13:21:12;;;;;;;8.48;4.50;;;2.00;67.00;;;;;;4955325;28;20087;-81
2024/01/05 13:23:58;;;;;;;7.50;4.25;;;1.90;66.90;;;;;;4955131;28;20117;-81
2024/01/05 13:26:44;;;;;;;6.93;4.50;;;1.90;66.90;;;;;;4941639;28;20034;-81